Terminal Aerodrome Forecast
Issued by NWS

Home | Current Version | Previous Version | Text Only | Print | Product List | Glossary On
Versions: 1 2 3 4 5 6 7 8 9 10 11 12 13 14 15 16 17 18 19 20
000
FTUS44 KSJT 110110 CCA
TAFJCT
TAF COR
KJCT 110110Z 1101/1124 18007KT P6SM OVC009
     FM110300 18006KT P6SM OVC008 WS020/19040KT
      TEMPO 1103/1107 5SM BR
     FM110700 19006KT 4SM BR OVC008 WS020/20040KT
      TEMPO 1109/1113 2SM BR
     FM111500 20007KT P6SM OVC015
     FM111730 21014G22KT P6SM SKC=

USA.gov is the U.S. government's official web portal to all federal, state and local government web resources and services.